sensor_id;sensor_type;location;lat;lon;timestamp;pressure;altitude;pressure_sealevel;temperature;humidity
10202;BME280;5143;42.584;23.164;2023-05-12T00:00:54;92729.56;;;9.52;100.00
10202;BME280;5143;42.584;23.164;2023-05-12T00:03:21;92729.75;;;9.48;100.00
10202;BME280;5143;42.584;23.164;2023-05-12T00:05:48;92731.75;;;9.33;100.00
10202;BME280;5143;42.584;23.164;2023-05-12T00:08:15;92724.16;;;9.23;100.00
10202;BME280;5143;42.584;23.164;2023-05-12T00:10:41;92732.00;;;9.21;100.00
10202;BME280;5143;42.584;23.164;2023-05-12T00:13:08;92732.41;;;9.28;100.00
10202;BME280;5143;42.584;23.164;2023-05-12T00:15:36;92726.00;;;9.31;100.00
10202;BME280;5143;42.584;23.164;2023-05-12T00:18:03;92723.28;;;9.31;100.00
10202;BME280;5143;42.584;23.164;2023-05-12T00:20:30;92725.25;;;9.31;100.00
10202;BME280;5143;42.584;23.164;2023-05-12T00:22:57;92721.13;;;9.21;100.00
10202;BME280;5143;42.584;23.164;2023-05-12T00:25:24;92726.56;;;9.21;100.00
10202;BME280;5143;42.584;23.164;2023-05-12T00:27:50;92715.50;;;9.24;100.00
10202;BME280;5143;42.584;23.164;2023-05-12T00:30:17;92714.72;;;9.24;100.00
10202;BME280;5143;42.584;23.164;2023-05-12T00:32:45;92715.00;;;9.26;100.00
10202;BME280;5143;42.584;23.164;2023-05-12T00:35:12;92711.66;;;9.31;100.00
10202;BME280;5143;42.584;23.164;2023-05-12T00:37:40;92718.31;;;9.30;100.00
10202;BME280;5143;42.584;23.164;2023-05-12T00:40:07;92713.13;;;9.32;100.00
10202;BME280;5143;42.584;23.164;2023-05-12T00:42:34;92717.72;;;9.26;100.00
10202;BME280;5143;42.584;23.164;2023-05-12T00:45:02;92710.78;;;9.25;100.00
10202;BME280;5143;42.584;23.164;2023-05-12T00:47:29;92718.97;;;9.25;100.00
10202;BME280;5143;42.584;23.164;2023-05-12T00:49:57;92721.69;;;9.25;100.00
10202;BME280;5143;42.584;23.164;2023-05-12T00:52:25;92719.72;;;9.11;100.00
10202;BME280;5143;42.584;23.164;2023-05-12T00:54:52;92719.06;;;9.16;100.00
10202;BME280;5143;42.584;23.164;2023-05-12T00:57:19;92721.13;;;9.21;100.00
10202;BME280;5143;42.584;23.164;2023-05-12T00:59:47;92719.63;;;9.20;100.00
10202;BME280;5143;42.584;23.164;2023-05-12T01:02:14;92717.09;;;9.16;100.00
10202;BME280;5143;42.584;23.164;2023-05-12T01:04:40;92726.19;;;9.28;100.00
10202;BME280;5143;42.584;23.164;2023-05-12T01:07:14;92721.69;;;9.25;100.00
10202;BME280;5143;42.584;23.164;2023-05-12T01:09:43;92723.19;;;9.26;100.00
10202;BME280;5143;42.584;23.164;2023-05-12T01:12:10;92723.38;;;9.22;100.00
10202;BME280;5143;42.584;23.164;2023-05-12T01:14:37;92729.38;;;9.26;100.00
10202;BME280;5143;42.584;23.164;2023-05-12T01:17:08;92723.19;;;9.26;100.00
10202;BME280;5143;42.584;23.164;2023-05-12T01:19:40;92727.50;;;9.18;100.00
10202;BME280;5143;42.584;23.164;2023-05-12T01:22:09;92720.66;;;9.08;100.00
10202;BME280;5143;42.584;23.164;2023-05-12T01:24:45;92722.63;;;9.07;100.00
10202;BME280;5143;42.584;23.164;2023-05-12T01:27:14;92724.97;;;9.14;100.00
10202;BME280;5143;42.584;23.164;2023-05-12T01:29:42;92723.66;;;9.10;100.00
10202;BME280;5143;42.584;23.164;2023-05-12T01:32:09;92720.25;;;9.15;100.00
10202;BME280;5143;42.584;23.164;2023-05-12T01:34:36;92717.00;;;9.11;100.00
10202;BME280;5143;42.584;23.164;2023-05-12T01:37:03;92719.44;;;9.09;100.00
10202;BME280;5143;42.584;23.164;2023-05-12T01:39:30;92723.38;;;9.08;100.00
10202;BME280;5143;42.584;23.164;2023-05-12T01:41:57;92720.47;;;9.11;100.00
10202;BME280;5143;42.584;23.164;2023-05-12T01:44:25;92711.28;;;9.09;100.00
10202;BME280;5143;42.584;23.164;2023-05-12T01:46:52;92713.78;;;9.12;100.00
10202;BME280;5143;42.584;23.164;2023-05-12T01:49:18;92724.22;;;9.14;100.00
10202;BME280;5143;42.584;23.164;2023-05-12T01:51:45;92718.97;;;9.10;100.00
10202;BME280;5143;42.584;23.164;2023-05-12T01:54:12;92714.28;;;9.11;100.00
10202;BME280;5143;42.584;23.164;2023-05-12T01:56:39;92710.03;;;9.10;100.00
10202;BME280;5143;42.584;23.164;2023-05-12T01:59:06;92714.28;;;9.11;100.00
10202;BME280;5143;42.584;23.164;2023-05-12T02:01:34;92707.63;;;9.12;100.00
10202;BME280;5143;42.584;23.164;2023-05-12T02:04:02;92703.09;;;9.09;100.00
10202;BME280;5143;42.584;23.164;2023-05-12T02:06:29;92696.16;;;9.08;100.00
10202;BME280;5143;42.584;23.164;2023-05-12T02:08:56;92691.63;;;9.05;100.00
10202;BME280;5143;42.584;23.164;2023-05-12T02:11:23;92690.16;;;9.04;100.00
10202;BME280;5143;42.584;23.164;2023-05-12T02:13:50;92694.53;;;9.01;100.00
10202;BME280;5143;42.584;23.164;2023-05-12T02:16:17;92684.13;;;9.00;100.00
10202;BME280;5143;42.584;23.164;2023-05-12T02:18:45;92694.94;;;9.09;100.00
10202;BME280;5143;42.584;23.164;2023-05-12T02:21:12;92690.69;;;9.08;100.00
10202;BME280;5143;42.584;23.164;2023-05-12T02:23:39;92682.81;;;8.95;100.00
10202;BME280;5143;42.584;23.164;2023-05-12T02:26:05;92692.19;;;8.94;100.00
10202;BME280;5143;42.584;23.164;2023-05-12T02:28:32;92694.66;;;8.92;100.00
10202;BME280;5143;42.584;23.164;2023-05-12T02:30:59;92690.88;;;8.89;100.00
10202;BME280;5143;42.584;23.164;2023-05-12T02:33:26;92695.41;;;8.93;100.00
10202;BME280;5143;42.584;23.164;2023-05-12T02:35:54;92703.84;;;8.95;100.00
10202;BME280;5143;42.584;23.164;2023-05-12T02:38:21;92701.19;;;8.85;100.00
10202;BME280;5143;42.584;23.164;2023-05-12T02:40:47;92714.06;;;8.85;100.00
10202;BME280;5143;42.584;23.164;2023-05-12T02:43:14;92711.63;;;8.87;100.00
10202;BME280;5143;42.584;23.164;2023-05-12T02:45:41;92709.84;;;8.84;100.00
10202;BME280;5143;42.584;23.164;2023-05-12T02:48:08;92712.56;;;8.84;100.00
10202;BME280;5143;42.584;23.164;2023-05-12T02:50:34;92714.06;;;8.85;100.00
10202;BME280;5143;42.584;23.164;2023-05-12T02:53:03;92715.66;;;8.92;100.00
10202;BME280;5143;42.584;23.164;2023-05-12T02:55:29;92720.31;;;8.76;100.00
10202;BME280;5143;42.584;23.164;2023-05-12T02:57:56;92716.56;;;8.74;100.00
10202;BME280;5143;42.584;23.164;2023-05-12T03:00:23;92714.88;;;8.76;100.00
10202;BME280;5143;42.584;23.164;2023-05-12T03:02:50;92713.66;;;8.77;100.00
10202;BME280;5143;42.584;23.164;2023-05-12T03:05:17;92717.69;;;8.82;100.00
10202;BME280;5143;42.584;23.164;2023-05-12T03:07:43;92714.44;;;8.78;100.00
10202;BME280;5143;42.584;23.164;2023-05-12T03:10:11;92722.41;;;8.81;100.00
10202;BME280;5143;42.584;23.164;2023-05-12T03:12:39;92719.22;;;8.83;100.00
10202;BME280;5143;42.584;23.164;2023-05-12T03:15:07;92719.41;;;8.79;100.00
10202;BME280;5143;42.584;23.164;2023-05-12T03:17:34;92721.63;;;8.66;100.00
10202;BME280;5143;42.584;23.164;2023-05-12T03:20:01;92723.78;;;8.62;100.00
10202;BME280;5143;42.584;23.164;2023-05-12T03:22:28;92726.84;;;8.55;100.00
10202;BME280;5143;42.584;23.164;2023-05-12T03:24:55;92727.78;;;8.52;100.00
10202;BME280;5143;42.584;23.164;2023-05-12T03:27:23;92736.06;;;8.58;100.00
10202;BME280;5143;42.584;23.164;2023-05-12T03:29:50;92735.03;;;8.55;100.00
10202;BME280;5143;42.584;23.164;2023-05-12T03:32:17;92727.22;;;8.48;100.00
10202;BME280;5143;42.584;23.164;2023-05-12T03:34:43;92720.75;;;8.46;100.00
10202;BME280;5143;42.584;23.164;2023-05-12T03:37:10;92734.75;;;8.53;100.00
10202;BME280;5143;42.584;23.164;2023-05-12T03:39:37;92736.88;;;8.49;100.00
10202;BME280;5143;42.584;23.164;2023-05-12T03:42:04;92737.53;;;8.44;100.00
10202;BME280;5143;42.584;23.164;2023-05-12T03:44:32;92738.91;;;8.40;100.00
10202;BME280;5143;42.584;23.164;2023-05-12T03:46:59;92731.81;;;8.42;100.00
10202;BME280;5143;42.584;23.164;2023-05-12T03:49:26;92737.88;;;8.37;100.00
10202;BME280;5143;42.584;23.164;2023-05-12T03:51:53;92740.72;;;8.43;100.00
10202;BME280;5143;42.584;23.164;2023-05-12T03:54:19;92730.88;;;8.45;100.00
10202;BME280;5143;42.584;23.164;2023-05-12T03:56:46;92734.69;;;8.39;100.00
10202;BME280;5143;42.584;23.164;2023-05-12T03:59:13;92731.78;;;8.18;100.00
10202;BME280;5143;42.584;23.164;2023-05-12T04:01:41;92739.44;;;8.29;100.00
10202;BME280;5143;42.584;23.164;2023-05-12T04:04:08;92734.53;;;8.42;100.00
10202;BME280;5143;42.584;23.164;2023-05-12T04:06:35;92739.38;;;8.38;100.00
10202;BME280;5143;42.584;23.164;2023-05-12T04:09:02;92740.84;;;8.48;100.00
10202;BME280;5143;42.584;23.164;2023-05-12T04:11:29;92746.44;;;8.45;100.00
10202;BME280;5143;42.584;23.164;2023-05-12T04:13:56;92735.81;;;8.32;100.00
10202;BME280;5143;42.584;23.164;2023-05-12T04:16:22;92746.97;;;8.34;100.00
10202;BME280;5143;42.584;23.164;2023-05-12T04:18:50;92744.69;;;8.32;100.00
10202;BME280;5143;42.584;23.164;2023-05-12T04:21:17;92756.06;;;8.31;100.00
10202;BME280;5143;42.584;23.164;2023-05-12T04:23:44;92756.63;;;8.35;100.00
10202;BME280;5143;42.584;23.164;2023-05-12T04:26:11;92752.41;;;8.34;100.00
10202;BME280;5143;42.584;23.164;2023-05-12T04:28:38;92742.16;;;8.29;100.00
10202;BME280;5143;42.584;23.164;2023-05-12T04:31:04;92756.63;;;8.35;100.00
10202;BME280;5143;42.584;23.164;2023-05-12T04:33:31;92756.00;;;8.40;100.00
10202;BME280;5143;42.584;23.164;2023-05-12T04:35:59;92768.69;;;8.43;100.00
10202;BME280;5143;42.584;23.164;2023-05-12T04:38:26;92761.13;;;8.38;100.00
10202;BME280;5143;42.584;23.164;2023-05-12T04:40:56;92767.72;;;8.22;100.00
10202;BME280;5143;42.584;23.164;2023-05-12T04:43:23;92763.97;;;8.44;100.00
10202;BME280;5143;42.584;23.164;2023-05-12T04:45:50;92761.66;;;8.51;100.00
10202;BME280;5143;42.584;23.164;2023-05-12T04:48:18;92766.94;;;8.31;100.00
10202;BME280;5143;42.584;23.164;2023-05-12T04:50:45;92770.63;;;8.43;100.00
10202;BME280;5143;42.584;23.164;2023-05-12T04:53:13;92772.19;;;8.58;100.00
10202;BME280;5143;42.584;23.164;2023-05-12T04:55:40;92774.84;;;8.67;100.00
10202;BME280;5143;42.584;23.164;2023-05-12T04:58:10;92777.91;;;8.60;100.00
10202;BME280;5143;42.584;23.164;2023-05-12T05:00:36;92776.19;;;8.48;100.00
10202;BME280;5143;42.584;23.164;2023-05-12T05:03:03;92775.81;;;8.55;100.00
10202;BME280;5143;42.584;23.164;2023-05-12T05:05:31;92770.22;;;8.59;100.00
10202;BME280;5143;42.584;23.164;2023-05-12T05:07:58;92772.00;;;8.62;100.00
10202;BME280;5143;42.584;23.164;2023-05-12T05:10:26;92766.69;;;8.67;100.00
10202;BME280;5143;42.584;23.164;2023-05-12T05:12:53;92769.97;;;8.71;100.00
10202;BME280;5143;42.584;23.164;2023-05-12T05:15:20;92763.38;;;8.63;100.00
10202;BME280;5143;42.584;23.164;2023-05-12T05:17:46;92768.22;;;8.83;100.00
10202;BME280;5143;42.584;23.164;2023-05-12T05:20:14;92778.44;;;8.88;100.00
10202;BME280;5143;42.584;23.164;2023-05-12T05:22:40;92775.19;;;8.99;100.00
10202;BME280;5143;42.584;23.164;2023-05-12T05:25:08;92783.66;;;9.01;100.00
10202;BME280;5143;42.584;23.164;2023-05-12T05:27:36;92775.50;;;9.01;100.00
10202;BME280;5143;42.584;23.164;2023-05-12T05:30:05;92777.06;;;8.93;100.00
10202;BME280;5143;42.584;23.164;2023-05-12T05:32:33;92778.22;;;9.01;100.00
10202;BME280;5143;42.584;23.164;2023-05-12T05:35:00;92782.91;;;9.00;100.00
10202;BME280;5143;42.584;23.164;2023-05-12T05:37:27;92779.72;;;9.16;100.00
10202;BME280;5143;42.584;23.164;2023-05-12T05:39:54;92799.44;;;9.26;100.00
10202;BME280;5143;42.584;23.164;2023-05-12T05:42:20;92783.41;;;9.28;100.00
10202;BME280;5143;42.584;23.164;2023-05-12T05:44:49;92784.63;;;9.27;100.00
10202;BME280;5143;42.584;23.164;2023-05-12T05:47:15;92775.31;;;9.19;100.00
10202;BME280;5143;42.584;23.164;2023-05-12T05:49:42;92790.91;;;9.33;100.00
10202;BME280;5143;42.584;23.164;2023-05-12T05:52:09;92788.19;;;9.33;100.00
10202;BME280;5143;42.584;23.164;2023-05-12T05:54:36;92794.78;;;9.41;100.00
10202;BME280;5143;42.584;23.164;2023-05-12T05:57:03;92794.38;;;9.48;100.00
10202;BME280;5143;42.584;23.164;2023-05-12T05:59:30;92796.28;;;9.42;100.00
10202;BME280;5143;42.584;23.164;2023-05-12T06:01:58;92791.03;;;9.53;100.00
10202;BME280;5143;42.584;23.164;2023-05-12T06:04:25;92799.84;;;9.48;100.00
10202;BME280;5143;42.584;23.164;2023-05-12T06:06:52;92807.91;;;9.42;100.00
10202;BME280;5143;42.584;23.164;2023-05-12T06:09:19;92792.78;;;9.27;100.00
10202;BME280;5143;42.584;23.164;2023-05-12T06:11:46;92806.03;;;9.34;100.00
10202;BME280;5143;42.584;23.164;2023-05-12T06:14:12;92798.44;;;9.38;100.00
10202;BME280;5143;42.584;23.164;2023-05-12T06:35:47;92821.66;;;9.77;100.00
10202;BME280;5143;42.584;23.164;2023-05-12T06:38:14;92826.91;;;9.52;100.00
10202;BME280;5143;42.584;23.164;2023-05-12T06:40:40;92826.16;;;9.66;100.00
10202;BME280;5143;42.584;23.164;2023-05-12T06:43:07;92813.19;;;9.46;100.00
10202;BME280;5143;42.584;23.164;2023-05-12T06:45:34;92840.25;;;9.79;100.00
10202;BME280;5143;42.584;23.164;2023-05-12T06:48:00;92836.59;;;9.96;100.00
10202;BME280;5143;42.584;23.164;2023-05-12T06:50:30;92842.88;;;10.02;100.00
10202;BME280;5143;42.584;23.164;2023-05-12T06:52:58;92834.97;;;9.75;100.00
10202;BME280;5143;42.584;23.164;2023-05-12T06:55:25;92837.34;;;9.82;100.00
10202;BME280;5143;42.584;23.164;2023-05-12T06:57:52;92841.56;;;9.83;100.00
10202;BME280;5143;42.584;23.164;2023-05-12T07:00:20;92842.41;;;9.89;100.00
10202;BME280;5143;42.584;23.164;2023-05-12T07:02:47;92833.56;;;9.94;100.00
10202;BME280;5143;42.584;23.164;2023-05-12T07:05:14;92837.44;;;10.02;100.00
10202;BME280;5143;42.584;23.164;2023-05-12T07:07:41;92835.34;;;10.12;100.00
10202;BME280;5143;42.584;23.164;2023-05-12T07:10:09;92842.84;;;10.32;100.00
10202;BME280;5143;42.584;23.164;2023-05-12T07:12:36;92838.00;;;10.56;100.00
10202;BME280;5143;42.584;23.164;2023-05-12T07:15:04;92842.69;;;10.90;100.00
10202;BME280;5143;42.584;23.164;2023-05-12T07:17:31;92848.78;;;10.85;100.00
10202;BME280;5143;42.584;23.164;2023-05-12T07:19:58;92842.72;;;10.76;100.00
10202;BME280;5143;42.584;23.164;2023-05-12T07:22:25;92849.28;;;10.84;100.00
10202;BME280;5143;42.584;23.164;2023-05-12T07:24:51;92856.44;;;10.81;100.00
10202;BME280;5143;42.584;23.164;2023-05-12T07:27:19;92847.56;;;10.86;100.00
10202;BME280;5143;42.584;23.164;2023-05-12T07:29:46;92843.34;;;11.05;100.00
10202;BME280;5143;42.584;23.164;2023-05-12T07:32:13;92848.28;;;11.01;100.00
10202;BME280;5143;42.584;23.164;2023-05-12T07:34:40;92850.16;;;11.15;100.00
10202;BME280;5143;42.584;23.164;2023-05-12T07:37:07;92856.44;;;11.21;100.00
10202;BME280;5143;42.584;23.164;2023-05-12T07:39:33;92845.31;;;11.25;100.00
10202;BME280;5143;42.584;23.164;2023-05-12T07:42:00;92851.16;;;11.38;100.00
10202;BME280;5143;42.584;23.164;2023-05-12T07:44:28;92850.16;;;11.36;100.00
10202;BME280;5143;42.584;23.164;2023-05-12T07:46:57;92833.09;;;11.20;100.00
10202;BME280;5143;42.584;23.164;2023-05-12T07:49:24;92846.06;;;11.25;100.00
10202;BME280;5143;42.584;23.164;2023-05-12T07:51:51;92842.78;;;11.42;100.00
10202;BME280;5143;42.584;23.164;2023-05-12T07:54:17;92838.53;;;11.87;100.00
10202;BME280;5143;42.584;23.164;2023-05-12T07:56:44;92844.78;;;12.24;100.00
10202;BME280;5143;42.584;23.164;2023-05-12T07:59:11;92851.03;;;12.24;100.00
10202;BME280;5143;42.584;23.164;2023-05-12T08:01:40;92847.22;;;12.16;100.00
10202;BME280;5143;42.584;23.164;2023-05-12T08:04:07;92849.94;;;12.48;100.00
10202;BME280;5143;42.584;23.164;2023-05-12T08:06:34;92851.59;;;12.34;100.00
10202;BME280;5143;42.584;23.164;2023-05-12T08:09:00;92860.72;;;12.57;100.00
10202;BME280;5143;42.584;23.164;2023-05-12T08:11:27;92857.56;;;13.12;100.00
10202;BME280;5143;42.584;23.164;2023-05-12T08:13:54;92859.69;;;13.44;100.00
10202;BME280;5143;42.584;23.164;2023-05-12T08:16:20;92858.69;;;13.42;100.00
10202;BME280;5143;42.584;23.164;2023-05-12T08:18:49;92869.53;;;13.95;100.00
10202;BME280;5143;42.584;23.164;2023-05-12T08:21:15;92841.78;;;13.60;100.00
10202;BME280;5143;42.584;23.164;2023-05-12T08:23:42;92881.09;;;14.44;100.00
10202;BME280;5143;42.584;23.164;2023-05-12T08:26:09;92889.81;;;14.53;100.00
10202;BME280;5143;42.584;23.164;2023-05-12T08:28:35;92895.81;;;14.91;100.00
10202;BME280;5143;42.584;23.164;2023-05-12T08:31:02;92889.06;;;14.81;100.00
10202;BME280;5143;42.584;23.164;2023-05-12T08:33:29;92896.66;;;15.54;100.00
10202;BME280;5143;42.584;23.164;2023-05-12T08:35:57;92894.56;;;15.71;100.00
10202;BME280;5143;42.584;23.164;2023-05-12T08:38:24;67896.00;;;-144.12;100.00
10202;BME280;5143;42.584;23.164;2023-05-12T08:40:56;67896.00;;;-144.12;100.00
10202;BME280;5143;42.584;23.164;2023-05-12T08:43:36;67896.00;;;-144.12;100.00
10202;BME280;5143;42.584;23.164;2023-05-12T08:46:03;67896.00;;;-144.12;100.00
10202;BME280;5143;42.584;23.164;2023-05-12T08:48:33;67896.00;;;-144.12;100.00
10202;BME280;5143;42.584;23.164;2023-05-12T08:51:01;67896.00;;;-144.12;100.00
10202;BME280;5143;42.584;23.164;2023-05-12T08:53:29;67896.00;;;-144.12;100.00
10202;BME280;5143;42.584;23.164;2023-05-12T08:55:59;67896.00;;;-144.12;100.00
10202;BME280;5143;42.584;23.164;2023-05-12T08:58:29;67896.00;;;-144.12;100.00
10202;BME280;5143;42.584;23.164;2023-05-12T09:00:58;67896.00;;;-144.12;100.00
10202;BME280;5143;42.584;23.164;2023-05-12T09:03:26;67896.00;;;-144.12;100.00
10202;BME280;5143;42.584;23.164;2023-05-12T09:05:53;67896.00;;;-144.12;100.00
10202;BME280;5143;42.584;23.164;2023-05-12T09:08:22;67896.00;;;-144.12;100.00
10202;BME280;5143;42.584;23.164;2023-05-12T09:10:50;67896.00;;;-144.12;100.00
10202;BME280;5143;42.584;23.164;2023-05-12T09:13:21;67896.00;;;-144.12;100.00
10202;BME280;5143;42.584;23.164;2023-05-12T09:15:50;67896.00;;;-144.12;100.00
10202;BME280;5143;42.584;23.164;2023-05-12T09:18:18;67896.00;;;-144.12;100.00
10202;BME280;5143;42.584;23.164;2023-05-12T09:20:44;67896.00;;;-144.12;100.00
10202;BME280;5143;42.584;23.164;2023-05-12T09:23:13;67896.00;;;-144.12;100.00
10202;BME280;5143;42.584;23.164;2023-05-12T09:25:41;67896.00;;;-144.12;100.00
10202;BME280;5143;42.584;23.164;2023-05-12T09:28:08;67896.00;;;-144.12;100.00
10202;BME280;5143;42.584;23.164;2023-05-12T09:30:35;67896.00;;;-144.12;100.00
10202;BME280;5143;42.584;23.164;2023-05-12T09:33:06;67896.00;;;-144.12;100.00
10202;BME280;5143;42.584;23.164;2023-05-12T09:35:39;67896.00;;;-144.12;100.00
10202;BME280;5143;42.584;23.164;2023-05-12T09:38:07;67896.00;;;-144.12;100.00
10202;BME280;5143;42.584;23.164;2023-05-12T09:40:34;67896.00;;;-144.12;100.00
10202;BME280;5143;42.584;23.164;2023-05-12T09:43:04;67896.00;;;-144.12;100.00
10202;BME280;5143;42.584;23.164;2023-05-12T09:45:33;67896.00;;;-144.12;100.00
10202;BME280;5143;42.584;23.164;2023-05-12T09:48:07;67896.00;;;-144.12;100.00
10202;BME280;5143;42.584;23.164;2023-05-12T09:50:42;67896.00;;;-144.12;100.00
10202;BME280;5143;42.584;23.164;2023-05-12T09:53:10;67896.00;;;-144.12;100.00
10202;BME280;5143;42.584;23.164;2023-05-12T09:55:37;67896.00;;;-144.12;100.00
10202;BME280;5143;42.584;23.164;2023-05-12T09:58:08;67896.00;;;-144.12;100.00
10202;BME280;5143;42.584;23.164;2023-05-12T10:00:35;67896.00;;;-144.12;100.00
10202;BME280;5143;42.584;23.164;2023-05-12T10:03:08;67896.00;;;-144.12;100.00
10202;BME280;5143;42.584;23.164;2023-05-12T10:05:37;67896.00;;;-144.12;100.00
10202;BME280;5143;42.584;23.164;2023-05-12T10:08:12;67896.00;;;-144.12;100.00
10202;BME280;5143;42.584;23.164;2023-05-12T10:10:43;67896.00;;;-144.12;100.00
10202;BME280;5143;42.584;23.164;2023-05-12T10:13:14;67896.00;;;-144.12;100.00
10202;BME280;5143;42.584;23.164;2023-05-12T10:15:41;67896.00;;;-144.12;100.00
10202;BME280;5143;42.584;23.164;2023-05-12T10:18:09;67896.00;;;-144.12;100.00
10202;BME280;5143;42.584;23.164;2023-05-12T10:20:38;67896.00;;;-144.12;100.00
10202;BME280;5143;42.584;23.164;2023-05-12T10:23:05;67896.00;;;-144.12;100.00
10202;BME280;5143;42.584;23.164;2023-05-12T10:25:33;67896.00;;;-144.12;100.00
10202;BME280;5143;42.584;23.164;2023-05-12T10:28:00;67896.00;;;-144.12;100.00
10202;BME280;5143;42.584;23.164;2023-05-12T10:30:30;67896.00;;;-144.12;100.00
10202;BME280;5143;42.584;23.164;2023-05-12T10:32:57;67896.00;;;-144.12;100.00
10202;BME280;5143;42.584;23.164;2023-05-12T10:35:31;67896.00;;;-144.12;100.00
10202;BME280;5143;42.584;23.164;2023-05-12T10:38:00;67896.00;;;-144.12;100.00
10202;BME280;5143;42.584;23.164;2023-05-12T10:40:28;67896.00;;;-144.12;100.00
10202;BME280;5143;42.584;23.164;2023-05-12T10:42:57;67896.00;;;-144.12;100.00
10202;BME280;5143;42.584;23.164;2023-05-12T10:45:25;67896.00;;;-144.12;100.00
10202;BME280;5143;42.584;23.164;2023-05-12T10:48:03;67896.00;;;-144.12;100.00
10202;BME280;5143;42.584;23.164;2023-05-12T10:50:31;67896.00;;;-144.12;100.00
10202;BME280;5143;42.584;23.164;2023-05-12T10:52:58;67896.00;;;-144.12;100.00
10202;BME280;5143;42.584;23.164;2023-05-12T10:55:32;67896.00;;;-144.12;100.00
10202;BME280;5143;42.584;23.164;2023-05-12T10:58:08;67896.00;;;-144.12;100.00
10202;BME280;5143;42.584;23.164;2023-05-12T11:00:43;67896.00;;;-144.12;100.00
10202;BME280;5143;42.584;23.164;2023-05-12T11:03:13;67896.00;;;-144.12;100.00
10202;BME280;5143;42.584;23.164;2023-05-12T11:05:41;67896.00;;;-144.12;100.00
10202;BME280;5143;42.584;23.164;2023-05-12T11:08:09;67896.00;;;-144.12;100.00
10202;BME280;5143;42.584;23.164;2023-05-12T11:10:36;67896.00;;;-144.12;100.00
10202;BME280;5143;42.584;23.164;2023-05-12T11:13:02;67896.00;;;-144.12;100.00
10202;BME280;5143;42.584;23.164;2023-05-12T11:15:29;67896.00;;;-144.12;100.00
10202;BME280;5143;42.584;23.164;2023-05-12T11:17:56;67896.00;;;-144.12;100.00
10202;BME280;5143;42.584;23.164;2023-05-12T11:20:25;67896.00;;;-144.12;100.00
10202;BME280;5143;42.584;23.164;2023-05-12T11:22:52;67896.00;;;-144.12;100.00
10202;BME280;5143;42.584;23.164;2023-05-12T11:25:19;67896.00;;;-144.12;100.00
10202;BME280;5143;42.584;23.164;2023-05-12T11:27:46;67896.00;;;-144.12;100.00
10202;BME280;5143;42.584;23.164;2023-05-12T11:30:14;67896.00;;;-144.12;100.00
10202;BME280;5143;42.584;23.164;2023-05-12T11:32:41;67896.00;;;-144.12;100.00
10202;BME280;5143;42.584;23.164;2023-05-12T11:35:11;67896.00;;;-144.12;100.00
10202;BME280;5143;42.584;23.164;2023-05-12T11:37:40;67896.00;;;-144.12;100.00
10202;BME280;5143;42.584;23.164;2023-05-12T11:40:13;67896.00;;;-144.12;100.00
10202;BME280;5143;42.584;23.164;2023-05-12T11:42:40;67896.00;;;-144.12;100.00
10202;BME280;5143;42.584;23.164;2023-05-12T11:45:18;67896.00;;;-144.12;100.00
10202;BME280;5143;42.584;23.164;2023-05-12T11:47:46;67896.00;;;-144.12;100.00
10202;BME280;5143;42.584;23.164;2023-05-12T11:50:19;67896.00;;;-144.12;100.00
10202;BME280;5143;42.584;23.164;2023-05-12T11:52:49;67896.00;;;-144.12;100.00
10202;BME280;5143;42.584;23.164;2023-05-12T11:55:20;67896.00;;;-144.12;100.00
10202;BME280;5143;42.584;23.164;2023-05-12T11:57:55;67896.00;;;-144.12;100.00
10202;BME280;5143;42.584;23.164;2023-05-12T12:00:27;67896.00;;;-144.12;100.00
10202;BME280;5143;42.584;23.164;2023-05-12T12:21:37;92908.19;;;18.02;63.70
10202;BME280;5143;42.584;23.164;2023-05-12T12:24:04;92897.84;;;17.65;63.78
10202;BME280;5143;42.584;23.164;2023-05-12T12:26:31;92900.28;;;17.44;64.90
10202;BME280;5143;42.584;23.164;2023-05-12T12:28:57;92892.13;;;17.33;65.20
10202;BME280;5143;42.584;23.164;2023-05-12T12:31:24;92896.88;;;17.08;67.11
10202;BME280;5143;42.584;23.164;2023-05-12T12:33:51;92887.88;;;17.32;67.51
10202;BME280;5143;42.584;23.164;2023-05-12T12:36:18;92895.09;;;17.17;67.37
10202;BME280;5143;42.584;23.164;2023-05-12T12:38:46;92886.84;;;17.59;69.46
10202;BME280;5143;42.584;23.164;2023-05-12T12:41:13;92890.00;;;17.69;66.35
10202;BME280;5143;42.584;23.164;2023-05-12T12:43:40;92890.06;;;17.39;66.29
10202;BME280;5143;42.584;23.164;2023-05-12T12:46:07;92881.69;;;17.26;68.87
10202;BME280;5143;42.584;23.164;2023-05-12T12:48:33;92879.91;;;17.04;70.91
10202;BME280;5143;42.584;23.164;2023-05-12T12:51:00;92873.34;;;16.83;68.43
10202;BME280;5143;42.584;23.164;2023-05-12T12:53:27;92871.81;;;16.82;73.82
10202;BME280;5143;42.584;23.164;2023-05-12T12:55:56;92866.50;;;17.14;73.94
10202;BME280;5143;42.584;23.164;2023-05-12T12:58:23;92859.66;;;17.21;74.26
10202;BME280;5143;42.584;23.164;2023-05-12T13:00:49;92849.63;;;17.42;73.32
10202;BME280;5143;42.584;23.164;2023-05-12T13:03:16;92853.44;;;17.39;75.18
10202;BME280;5143;42.584;23.164;2023-05-12T13:05:43;92847.47;;;17.59;68.75
10202;BME280;5143;42.584;23.164;2023-05-12T13:08:09;92845.63;;;17.43;73.20
10202;BME280;5143;42.584;23.164;2023-05-12T13:10:36;92841.59;;;17.20;71.68
10202;BME280;5143;42.584;23.164;2023-05-12T13:13:06;92847.53;;;16.81;70.40
10202;BME280;5143;42.584;23.164;2023-05-12T13:15:36;92845.47;;;16.57;75.60
10202;BME280;5143;42.584;23.164;2023-05-12T13:18:03;92848.25;;;16.81;78.59
10202;BME280;5143;42.584;23.164;2023-05-12T13:20:29;92848.50;;;16.83;76.34
10202;BME280;5143;42.584;23.164;2023-05-12T13:22:56;92837.72;;;17.09;74.22
10202;BME280;5143;42.584;23.164;2023-05-12T13:25:23;92837.25;;;16.81;70.45
10202;BME280;5143;42.584;23.164;2023-05-12T13:27:50;92837.28;;;17.05;73.69
10202;BME280;5143;42.584;23.164;2023-05-12T13:30:18;92840.25;;;17.07;68.02